Terminal Aerodrome Forecast
Issued by NWS Miami, FL

Home | Current Version | Previous Version | Text Only | Print | Product List | Glossary On
Versions: 1 2 3 4 5 6 7 8 9 10 11 12 13 14 15 16 17 18 19 20 21 22 23 24 25 26 27 28
000
FTUS42 KMFL 240304 AAB
TAFFLL
TAF AMD
KFLL 240304Z 2403/2424 VRB03KT P6SM SCT027 BKN100 BKN120
     FM240600 VRB03KT P6SM VCSH SCT030 SCT120 BKN250
     FM241400 12005KT P6SM VCSH FEW025 SCT060
     FM241700 11010KT P6SM VCTS SCT025CB BKN060=

USA.gov is the U.S. government's official web portal to all federal, state and local government web resources and services.